Faith, North Carolina
Current Conditions -  °F | °C
As of 1:35 AM on Thursday 27 Nov 2014 (Local Time) from KRUQ Reporting Station
Overcast Overcast  
Wind Chill: 41°   Ceiling: 600
Heat Index: 41°   Visibility: 7mi
Dew Point: 40°   Wind: 0mph
Humidity: 96%   Direction: NA
Pressure: 30.02"   Gusts: NA
Location:  35.59°N, 80.46°W
Report Text: KRUQ 270635Z AUTO 00000KT 7SM OVC006 05/05 A3002 RMK AO2 T00510045
Loading
Personal Weather Stations






























Interactive Weather Map New forecast layout! Learn more

10-Day Weather Forecast

Advertisements
Track Severe Weather on mobile